createdAt,value
2023-03-04T00:00:27.167Z,1.21
2023-03-04T00:02:57.010Z,1.15
2023-03-04T00:05:26.735Z,0.96
2023-03-04T00:07:56.375Z,0.86
2023-03-04T00:10:26.530Z,0.82
2023-03-04T00:12:56.192Z,0.79
2023-03-04T00:15:25.957Z,0.72
2023-03-04T00:17:55.600Z,0.91
2023-03-04T00:20:25.200Z,0.87
2023-03-04T00:22:55.037Z,0.86
2023-03-04T00:25:24.682Z,0.86
2023-03-04T00:27:54.448Z,0.90
2023-03-04T00:30:24.254Z,1.02
2023-03-04T00:32:53.915Z,0.96
2023-03-04T00:35:23.593Z,1.12
2023-03-04T00:37:53.265Z,1.03
2023-03-04T00:40:22.901Z,1.22
2023-03-04T00:42:52.863Z,1.35
2023-03-04T00:45:22.506Z,1.36
2023-03-04T00:47:52.274Z,1.33
2023-03-04T00:50:21.969Z,1.30
2023-03-04T00:52:51.588Z,1.25
2023-03-04T00:55:21.242Z,1.37
2023-03-04T00:57:50.892Z,1.29
2023-03-04T01:00:21.210Z,1.26
2023-03-04T01:02:50.966Z,1.26
2023-03-04T01:05:20.720Z,1.34
2023-03-04T01:07:50.367Z,1.33
2023-03-04T01:10:20.474Z,1.23
2023-03-04T01:12:50.158Z,1.22
2023-03-04T01:15:19.838Z,1.32
2023-03-04T01:17:49.653Z,1.24
2023-03-04T01:20:19.874Z,1.25
2023-03-04T01:22:50.409Z,1.21
2023-03-04T01:25:20.107Z,1.26
2023-03-04T01:27:49.766Z,1.35
2023-03-04T01:30:19.586Z,1.29
2023-03-04T01:32:49.200Z,1.26
2023-03-04T01:35:18.906Z,1.28
2023-03-04T01:37:48.479Z,1.22
2023-03-04T01:40:18.646Z,1.15
2023-03-04T01:42:48.586Z,1.18
2023-03-04T01:45:21.025Z,1.24
2023-03-04T01:47:52.431Z,1.05
2023-03-04T01:50:33.547Z,1.12
2023-03-04T01:53:04.713Z,1.13
2023-03-04T01:55:34.192Z,0.97
2023-03-04T01:58:09.708Z,0.49
2023-03-04T02:00:40.281Z,0.20
2023-03-04T02:03:16.507Z,0.09
2023-03-04T02:05:51.677Z,-0.47
2023-03-04T02:08:24.820Z,-0.77
2023-03-04T02:10:55.109Z,-0.67
2023-03-04T02:13:24.745Z,-0.74
2023-03-04T02:15:54.467Z,-0.91
2023-03-04T02:18:25.359Z,-0.93
2023-03-04T02:21:29.223Z,-0.96
2023-03-04T02:24:16.003Z,-0.68
2023-03-04T02:26:47.087Z,-0.67
2023-03-04T02:29:18.409Z,-0.37
2023-03-04T02:31:52.237Z,-0.36
2023-03-04T02:34:31.919Z,-0.40
2023-03-04T02:37:04.064Z,-0.43
2023-03-04T02:39:43.542Z,-0.58
2023-03-04T02:42:13.859Z,-0.59
2023-03-04T02:44:49.349Z,-0.42
2023-03-04T02:47:19.984Z,-0.79
2023-03-04T02:49:49.917Z,-0.98
2023-03-04T02:52:25.491Z,-0.82
2023-03-04T02:54:55.107Z,-0.52
2023-03-04T02:57:24.767Z,-0.76
2023-03-04T02:59:54.380Z,-0.73
2023-03-04T03:02:24.082Z,-1.14
2023-03-04T03:04:53.712Z,-0.98
2023-03-04T03:07:23.353Z,-0.69
2023-03-04T03:09:52.981Z,-0.86
2023-03-04T03:12:22.633Z,-0.90
2023-03-04T03:14:52.225Z,-0.55
2023-03-04T03:17:21.860Z,-0.70
2023-03-04T03:19:51.484Z,-0.82
2023-03-04T03:22:21.153Z,-0.95
2023-03-04T03:24:50.847Z,-1.04
2023-03-04T03:27:21.354Z,-1.13
2023-03-04T03:29:51.856Z,-1.07
2023-03-04T03:32:21.553Z,-1.09
2023-03-04T03:34:52.141Z,-1.14
2023-03-04T03:37:21.825Z,-1.25
2023-03-04T03:39:51.397Z,-1.19
2023-03-04T03:42:21.031Z,-1.26
2023-03-04T03:44:50.821Z,-1.11
2023-03-04T03:47:20.561Z,-1.35
2023-03-04T03:49:50.401Z,-1.67
2023-03-04T03:52:20.127Z,-1.64
2023-03-04T03:54:49.876Z,-1.76
2023-03-04T03:57:19.533Z,-1.50
2023-03-04T03:59:49.187Z,-1.53
2023-03-04T04:02:18.909Z,-1.42
2023-03-04T04:04:49.541Z,-1.17
2023-03-04T04:07:19.661Z,-1.46
2023-03-04T04:09:49.374Z,-1.48
2023-03-04T04:12:20.508Z,-1.66
2023-03-04T04:14:50.113Z,-1.85
2023-03-04T04:17:19.726Z,-1.78
2023-03-04T04:19:49.465Z,-1.59
2023-03-04T04:22:21.282Z,-1.62
2023-03-04T04:24:51.008Z,-1.88
2023-03-04T04:27:20.772Z,-2.05
2023-03-04T04:29:50.301Z,-1.81
2023-03-04T04:32:20.082Z,-1.69
2023-03-04T04:34:49.795Z,-1.62
2023-03-04T04:37:19.788Z,-1.72
2023-03-04T04:39:49.571Z,-1.48
2023-03-04T04:42:19.145Z,-1.62
2023-03-04T04:44:48.945Z,-1.80
2023-03-04T04:47:18.704Z,-1.72
2023-03-04T04:49:48.270Z,-1.88
2023-03-04T04:52:17.865Z,-1.89
2023-03-04T04:54:47.560Z,-2.09
2023-03-04T04:57:16.176Z,-2.22
2023-03-04T04:59:45.705Z,-1.94
2023-03-04T05:02:15.441Z,-2.08
2023-03-04T05:04:44.967Z,-1.90
2023-03-04T05:07:13.769Z,-1.67
2023-03-04T05:09:43.328Z,-1.52
2023-03-04T05:12:12.960Z,-1.63
2023-03-04T05:14:42.645Z,-1.39
2023-03-04T05:17:10.473Z,-1.64
2023-03-04T05:19:40.121Z,-1.56
2023-03-04T05:22:09.888Z,-1.58
2023-03-04T05:24:39.400Z,-1.46
2023-03-04T05:27:09.044Z,-1.37
2023-03-04T05:29:38.609Z,-1.23
2023-03-04T05:32:08.254Z,-1.33
2023-03-04T05:34:37.866Z,-1.38
2023-03-04T05:37:07.538Z,-1.37
2023-03-04T05:39:37.137Z,-1.35
2023-03-04T05:42:06.780Z,-1.31
2023-03-04T05:44:36.336Z,-0.93
2023-03-04T05:47:05.951Z,-0.83
2023-03-04T05:49:35.489Z,-0.78
2023-03-04T05:52:05.052Z,-0.40
2023-03-04T05:54:34.649Z,-0.24
2023-03-04T05:57:04.294Z,-0.30
2023-03-04T05:59:33.833Z,0.24
2023-03-04T06:02:02.521Z,0.42
2023-03-04T06:04:32.231Z,0.15
2023-03-04T06:07:01.763Z,0.64
2023-03-04T06:09:31.329Z,1.60
2023-03-04T06:12:00.887Z,4.17
2023-03-04T06:14:30.557Z,5.85
2023-03-04T06:17:01.433Z,7.41
2023-03-04T06:19:31.091Z,7.08
2023-03-04T06:22:00.960Z,8.52
2023-03-04T06:24:30.584Z,8.52
2023-03-04T06:27:00.566Z,9.43
2023-03-04T06:29:30.381Z,8.29
2023-03-04T06:32:00.123Z,9.57
2023-03-04T06:34:30.029Z,9.25
2023-03-04T06:36:59.903Z,9.17
2023-03-04T06:39:29.365Z,9.68
2023-03-04T06:41:58.975Z,8.94
2023-03-04T06:44:28.580Z,10.69
2023-03-04T06:46:58.544Z,12.03
2023-03-04T06:49:28.093Z,10.72
2023-03-04T06:51:57.553Z,9.75
2023-03-04T06:54:27.043Z,10.06
2023-03-04T06:56:56.575Z,10.19
2023-03-04T06:59:26.220Z,10.48
2023-03-04T07:01:55.961Z,11.08
2023-03-04T07:04:25.517Z,12.17
2023-03-04T07:06:55.029Z,11.21
2023-03-04T07:09:24.652Z,11.85
2023-03-04T07:11:54.062Z,11.17
2023-03-04T07:14:24.259Z,11.82
2023-03-04T07:16:53.995Z,12.80
2023-03-04T07:19:23.824Z,7.75
2023-03-04T07:21:53.313Z,6.00
2023-03-04T07:24:22.852Z,4.95
2023-03-04T07:26:52.674Z,5.19
2023-03-04T07:29:22.171Z,4.94
2023-03-04T07:31:53.677Z,4.62
2023-03-04T07:34:23.465Z,4.88
2023-03-04T07:36:53.104Z,5.28
2023-03-04T07:39:22.675Z,5.06
2023-03-04T07:41:52.183Z,5.03
2023-03-04T07:44:21.977Z,5.87
2023-03-04T07:46:51.469Z,6.06
2023-03-04T07:49:22.087Z,5.81
2023-03-04T07:51:51.608Z,5.94
2023-03-04T07:54:20.372Z,5.95
2023-03-04T07:56:49.822Z,6.16
2023-03-04T07:59:18.524Z,6.72
2023-03-04T08:01:48.082Z,6.93
2023-03-04T08:04:17.581Z,6.42
2023-03-04T08:06:48.923Z,6.21
2023-03-04T08:09:18.425Z,6.64
2023-03-04T08:11:47.921Z,6.57
2023-03-04T08:14:17.116Z,6.60
2023-03-04T08:16:45.811Z,6.85
2023-03-04T08:19:15.375Z,7.50
2023-03-04T08:21:44.892Z,6.73
2023-03-04T08:24:13.923Z,7.36
2023-03-04T08:26:49.094Z,7.12
2023-03-04T08:29:23.936Z,7.08
2023-03-04T08:31:55.642Z,7.84
2023-03-04T08:34:28.120Z,6.78
2023-03-04T08:36:57.593Z,7.05
2023-03-04T08:39:27.136Z,7.20
2023-03-04T08:41:56.651Z,7.38
2023-03-04T08:44:26.834Z,7.79
2023-03-04T08:46:56.385Z,8.40
2023-03-04T08:49:25.911Z,7.72
2023-03-04T08:51:54.553Z,8.90
2023-03-04T08:54:23.983Z,8.14
2023-03-04T08:56:53.455Z,8.70
2023-03-04T08:59:23.052Z,8.70
2023-03-04T09:01:51.885Z,8.35
2023-03-04T09:04:21.362Z,9.20
2023-03-04T09:06:52.809Z,9.00
2023-03-04T09:09:23.290Z,8.58
2023-03-04T09:11:52.003Z,9.24
2023-03-04T09:14:21.447Z,9.47
2023-03-04T09:16:50.249Z,9.49
2023-03-04T09:19:19.015Z,9.66
2023-03-04T09:21:47.560Z,9.84
2023-03-04T09:24:16.680Z,9.77
2023-03-04T09:26:46.027Z,9.72
2023-03-04T09:29:13.789Z,9.92
2023-03-04T09:31:42.464Z,9.91
2023-03-04T09:34:11.156Z,10.20
2023-03-04T09:36:39.913Z,10.79
2023-03-04T09:39:08.735Z,10.75
2023-03-04T09:41:53.012Z,10.82
2023-03-04T09:44:33.083Z,10.19
2023-03-04T09:47:15.617Z,10.17
2023-03-04T09:49:53.160Z,10.79
2023-03-04T09:53:03.675Z,11.02
2023-03-04T09:55:44.172Z,10.71
2023-03-04T09:59:02.547Z,10.90
2023-03-04T10:01:57.114Z,11.02
2023-03-04T10:04:47.503Z,10.82
2023-03-04T10:07:34.694Z,10.85
2023-03-04T10:10:28.266Z,11.02
2023-03-04T10:13:00.973Z,11.23
2023-03-04T10:15:41.950Z,11.03
2023-03-04T10:18:56.181Z,10.85
2023-03-04T10:21:38.423Z,11.19
2023-03-04T10:24:18.433Z,11.28
2023-03-04T10:26:52.905Z,11.35
2023-03-04T10:29:25.091Z,11.58
2023-03-04T10:31:56.287Z,11.90
2023-03-04T10:34:25.489Z,11.48
2023-03-04T10:37:07.160Z,11.89
2023-03-04T10:39:41.031Z,11.12
2023-03-04T10:42:15.563Z,11.24
2023-03-04T10:45:01.028Z,11.48
2023-03-04T10:47:33.641Z,11.30
2023-03-04T10:50:06.938Z,11.49
2023-03-04T10:52:46.684Z,11.86
2023-03-04T10:55:29.171Z,11.38
2023-03-04T10:58:08.001Z,11.34
2023-03-04T11:00:38.679Z,11.73
2023-03-04T11:03:33.222Z,12.07
2023-03-04T11:06:22.460Z,11.95
2023-03-04T11:08:59.928Z,12.17
2023-03-04T11:11:42.640Z,12.10
2023-03-04T11:14:52.144Z,11.77
2023-03-04T11:17:29.359Z,12.08
2023-03-04T11:20:30.926Z,12.12
2023-03-04T11:23:07.175Z,12.34
2023-03-04T11:25:48.842Z,12.13
2023-03-04T11:28:57.057Z,11.91
2023-03-04T11:31:34.915Z,12.57
2023-03-04T11:34:33.746Z,12.76
2023-03-04T11:37:48.141Z,12.13
2023-03-04T11:40:38.856Z,12.51
2023-03-04T11:43:44.929Z,11.71
2023-03-04T11:46:41.259Z,11.59
2023-03-04T11:49:56.113Z,12.51
2023-03-04T11:52:43.873Z,12.22
2023-03-04T11:55:56.393Z,12.38
2023-03-04T11:59:23.617Z,12.06
2023-03-04T12:02:11.026Z,11.70
2023-03-04T12:05:21.253Z,11.67
2023-03-04T12:08:39.831Z,12.14
2023-03-04T12:11:30.077Z,12.08
2023-03-04T12:14:31.320Z,12.23
2023-03-04T12:17:38.009Z,11.93
2023-03-04T12:20:49.553Z,11.72
2023-03-04T12:24:04.598Z,11.88
2023-03-04T12:27:32.947Z,11.75
2023-03-04T12:30:20.739Z,11.85
2023-03-04T12:33:36.617Z,12.12
2023-03-04T12:36:46.149Z,12.11
2023-03-04T12:39:57.940Z,11.77
2023-03-04T12:42:38.337Z,11.85
2023-03-04T12:46:17.866Z,12.08
2023-03-04T12:49:37.833Z,12.02
2023-03-04T12:52:25.921Z,12.09
2023-03-04T12:55:02.833Z,11.91
2023-03-04T12:57:33.418Z,12.10
2023-03-04T13:00:17.918Z,12.15
2023-03-04T13:02:57.192Z,12.17
2023-03-04T13:05:54.314Z,11.80
2023-03-04T13:08:56.600Z,11.70
2023-03-04T13:11:29.248Z,12.02
2023-03-04T13:14:18.370Z,12.40
2023-03-04T13:16:54.646Z,12.17
2023-03-04T13:19:59.566Z,12.36
2023-03-04T13:22:36.021Z,12.16
2023-03-04T13:25:50.327Z,12.16
2023-03-04T13:28:27.560Z,12.10
2023-03-04T13:30:57.186Z,11.90
2023-03-04T13:33:25.783Z,12.06
2023-03-04T13:36:01.883Z,11.74
2023-03-04T13:38:31.363Z,11.95
2023-03-04T13:41:06.493Z,12.15
2023-03-04T13:43:54.585Z,12.15
2023-03-04T13:46:27.637Z,11.96
2023-03-04T13:48:56.197Z,12.23
2023-03-04T13:51:45.258Z,12.17
2023-03-04T13:54:32.356Z,12.04
2023-03-04T13:57:00.921Z,12.23
2023-03-04T13:59:50.965Z,12.18
2023-03-04T14:02:26.165Z,12.13
2023-03-04T14:05:00.001Z,12.17
2023-03-04T14:07:37.309Z,12.13
2023-03-04T14:10:25.177Z,11.98
2023-03-04T14:12:59.956Z,12.07
2023-03-04T14:15:33.572Z,11.98
2023-03-04T14:18:06.339Z,12.18
2023-03-04T14:20:42.879Z,12.06
2023-03-04T14:23:36.510Z,12.05
2023-03-04T14:26:18.469Z,12.12
2023-03-04T14:28:56.855Z,12.07
2023-03-04T14:31:32.460Z,11.89
2023-03-04T14:34:04.785Z,11.99
2023-03-04T14:36:37.690Z,11.95
2023-03-04T14:39:13.447Z,11.97
2023-03-04T14:41:44.252Z,11.95
2023-03-04T14:44:44.812Z,11.85
2023-03-04T14:47:39.168Z,11.73
2023-03-04T14:50:14.589Z,11.72
2023-03-04T14:52:54.383Z,11.74
2023-03-04T14:55:28.974Z,11.76
2023-03-04T14:58:27.302Z,11.64
2023-03-04T15:01:18.464Z,11.57
2023-03-04T15:04:13.800Z,11.63
2023-03-04T15:06:53.401Z,11.58
2023-03-04T15:09:26.268Z,11.49
2023-03-04T15:12:09.181Z,11.49
2023-03-04T15:14:59.815Z,11.47
2023-03-04T15:17:40.678Z,11.47
2023-03-04T15:20:09.264Z,11.37
2023-03-04T15:23:07.282Z,11.17
2023-03-04T15:25:36.725Z,11.13
2023-03-04T15:28:06.977Z,11.14
2023-03-04T15:30:35.565Z,10.82
2023-03-04T15:33:06.352Z,10.68
2023-03-04T15:35:34.295Z,10.73
2023-03-04T15:38:03.215Z,10.47
2023-03-04T15:40:44.679Z,10.36
2023-03-04T15:43:19.117Z,10.39
2023-03-04T15:45:49.876Z,10.25
2023-03-04T15:48:19.794Z,10.22
2023-03-04T15:50:56.144Z,10.08
2023-03-04T15:53:40.166Z,9.97
2023-03-04T15:56:19.818Z,9.84
2023-03-04T15:59:16.012Z,9.75
2023-03-04T16:01:45.125Z,9.59
2023-03-04T16:04:17.221Z,9.55
2023-03-04T16:06:50.051Z,9.47
2023-03-04T16:09:21.761Z,9.38
2023-03-04T16:11:50.693Z,9.25
2023-03-04T16:14:20.198Z,9.18
2023-03-04T16:16:50.622Z,9.00
2023-03-04T16:19:21.940Z,8.93
2023-03-04T16:21:51.366Z,8.82
2023-03-04T16:24:22.091Z,8.79
2023-03-04T16:26:50.852Z,8.81
2023-03-04T16:29:19.608Z,8.69
2023-03-04T16:31:49.116Z,8.65
2023-03-04T16:34:18.572Z,8.54
2023-03-04T16:36:48.050Z,8.54
2023-03-04T16:39:25.587Z,8.45
2023-03-04T16:41:55.116Z,8.31
2023-03-04T16:44:24.723Z,8.21
2023-03-04T16:46:54.132Z,7.96
2023-03-04T16:49:22.842Z,7.96
2023-03-04T16:51:52.505Z,8.00
2023-03-04T16:54:32.310Z,7.84
2023-03-04T16:57:01.939Z,7.83
2023-03-04T16:59:32.494Z,8.07
2023-03-04T17:02:02.038Z,7.80
2023-03-04T17:04:31.671Z,7.83
2023-03-04T17:07:01.249Z,7.72
2023-03-04T17:09:29.934Z,7.65
2023-03-04T17:12:00.132Z,7.53
2023-03-04T17:14:29.746Z,7.42
2023-03-04T17:17:01.242Z,7.34
2023-03-04T17:19:31.486Z,7.29
2023-03-04T17:22:02.179Z,7.24
2023-03-04T17:24:32.222Z,7.12
2023-03-04T17:27:01.736Z,7.03
2023-03-04T17:29:31.177Z,6.92
2023-03-04T17:32:03.674Z,6.72
2023-03-04T17:34:36.797Z,6.75
2023-03-04T17:37:06.354Z,6.70
2023-03-04T17:39:35.058Z,6.85
2023-03-04T17:42:06.449Z,6.66
2023-03-04T17:44:35.947Z,6.54
2023-03-04T17:47:04.738Z,6.61
2023-03-04T17:49:36.435Z,6.77
2023-03-04T17:52:07.710Z,6.76
2023-03-04T17:54:36.808Z,6.77
2023-03-04T17:57:06.663Z,6.93
2023-03-04T17:59:36.343Z,6.76
2023-03-04T18:02:06.265Z,6.75
2023-03-04T18:04:35.842Z,6.58
2023-03-04T18:07:05.300Z,6.64
2023-03-04T18:09:36.097Z,6.54
2023-03-04T18:12:05.456Z,6.59
2023-03-04T18:14:34.268Z,6.47
2023-03-04T18:17:03.720Z,6.43
2023-03-04T18:19:33.447Z,6.35
2023-03-04T18:22:03.004Z,6.33
2023-03-04T18:24:33.014Z,6.35
2023-03-04T18:27:01.734Z,6.25
2023-03-04T18:29:31.202Z,6.29
2023-03-04T18:32:01.133Z,6.14
2023-03-04T18:34:30.679Z,6.12
2023-03-04T18:37:00.113Z,5.97
2023-03-04T18:39:29.628Z,5.98
2023-03-04T18:42:00.533Z,6.11
2023-03-04T18:44:30.028Z,5.83
2023-03-04T18:46:59.644Z,5.81
2023-03-04T18:49:28.394Z,5.70
2023-03-04T18:51:57.957Z,5.69
2023-03-04T18:54:27.387Z,5.69
2023-03-04T18:57:10.059Z,5.71
2023-03-04T18:59:48.677Z,5.63
2023-03-04T19:02:47.578Z,5.62
2023-03-04T19:05:27.534Z,5.43
2023-03-04T19:07:56.631Z,5.34
2023-03-04T19:10:27.432Z,5.33
2023-03-04T19:12:57.640Z,5.31
2023-03-04T19:15:27.027Z,5.30
2023-03-04T19:17:54.816Z,-146.39
2023-03-04T19:20:23.582Z,-146.39
2023-03-04T19:22:52.227Z,5.30
2023-03-04T19:25:20.943Z,4.98
2023-03-04T19:27:48.890Z,5.09
2023-03-04T19:30:18.286Z,4.93
2023-03-04T19:32:46.266Z,4.83
2023-03-04T19:35:16.985Z,4.77
2023-03-04T19:37:45.728Z,4.65
2023-03-04T19:40:14.009Z,4.56
2023-03-04T19:42:42.760Z,4.52
2023-03-04T19:45:10.925Z,4.48
2023-03-04T19:47:40.858Z,4.69
2023-03-04T19:50:11.853Z,4.36
2023-03-04T19:52:41.124Z,4.33
2023-03-04T19:55:12.950Z,4.36
2023-03-04T19:57:44.546Z,4.28
2023-03-04T20:00:14.255Z,4.14
2023-03-04T20:02:43.937Z,4.23
2023-03-04T20:05:12.522Z,4.16
2023-03-04T20:07:41.160Z,3.87
2023-03-04T20:10:10.605Z,3.87
2023-03-04T20:12:39.317Z,3.78
2023-03-04T20:15:09.976Z,3.87
2023-03-04T20:17:39.407Z,3.87
2023-03-04T20:20:10.780Z,3.90
2023-03-04T20:22:39.696Z,3.88
2023-03-04T20:25:08.020Z,3.71
2023-03-04T20:27:38.040Z,3.73
2023-03-04T20:30:06.625Z,3.74
2023-03-04T20:32:35.361Z,3.71
2023-03-04T20:35:04.626Z,3.65
2023-03-04T20:37:36.180Z,3.56
2023-03-04T20:40:07.022Z,3.53
2023-03-04T20:42:36.654Z,3.51
2023-03-04T20:45:07.730Z,3.47
2023-03-04T20:47:39.491Z,3.47
2023-03-04T20:50:08.782Z,3.47
2023-03-04T20:52:36.586Z,3.36
2023-03-04T20:55:05.920Z,3.25
2023-03-04T20:57:33.735Z,3.32
2023-03-04T21:00:02.529Z,3.32
2023-03-04T21:02:30.986Z,3.36
2023-03-04T21:04:58.834Z,3.27
2023-03-04T21:07:28.093Z,3.15
2023-03-04T21:09:57.181Z,3.27
2023-03-04T21:12:26.285Z,3.11
2023-03-04T21:14:55.016Z,3.13
2023-03-04T21:17:24.620Z,2.93
2023-03-04T21:19:52.437Z,2.92
2023-03-04T21:22:21.210Z,2.97
2023-03-04T21:24:50.777Z,2.86
2023-03-04T21:27:19.461Z,2.74
2023-03-04T21:29:49.505Z,2.89
2023-03-04T21:32:25.299Z,2.90
2023-03-04T21:34:55.671Z,2.88
2023-03-04T21:37:25.522Z,2.86
2023-03-04T21:39:55.560Z,2.80
2023-03-04T21:42:23.661Z,2.86
2023-03-04T21:44:52.185Z,2.78
2023-03-04T21:47:22.362Z,2.72
2023-03-04T21:49:50.821Z,2.85
2023-03-04T21:52:21.063Z,2.86
2023-03-04T21:54:49.842Z,2.85
2023-03-04T21:57:19.856Z,2.81
2023-03-04T21:59:47.733Z,2.89
2023-03-04T22:02:22.517Z,2.79
2023-03-04T22:04:51.205Z,2.74
2023-03-04T22:07:19.210Z,2.71
2023-03-04T22:09:47.124Z,2.61
2023-03-04T22:12:16.401Z,2.75
2023-03-04T22:14:45.322Z,2.78
2023-03-04T22:17:13.197Z,2.80
2023-03-04T22:19:41.990Z,2.76
2023-03-04T22:22:10.671Z,2.75
2023-03-04T22:24:39.357Z,2.73
2023-03-04T22:27:08.008Z,2.67
2023-03-04T22:29:35.884Z,2.66
2023-03-04T22:32:05.307Z,2.69
2023-03-04T22:34:34.034Z,2.63
2023-03-04T22:37:01.801Z,2.61
2023-03-04T22:39:29.556Z,2.60
2023-03-04T22:41:57.381Z,2.50
2023-03-04T22:44:25.132Z,2.50
2023-03-04T22:46:53.817Z,2.46
2023-03-04T22:49:21.599Z,2.38
2023-03-04T22:51:50.209Z,2.51
2023-03-04T22:54:19.934Z,2.45
2023-03-04T22:56:48.558Z,2.47
2023-03-04T22:59:18.065Z,2.45
2023-03-04T23:01:45.806Z,2.35
2023-03-04T23:04:14.484Z,2.18
2023-03-04T23:06:43.238Z,2.24
2023-03-04T23:09:11.943Z,2.14
2023-03-04T23:11:40.809Z,2.00
2023-03-04T23:14:11.788Z,2.06
2023-03-04T23:16:44.645Z,2.19
2023-03-04T23:19:16.705Z,2.27
2023-03-04T23:21:45.443Z,2.14
2023-03-04T23:24:14.232Z,2.15
2023-03-04T23:26:43.609Z,2.14
2023-03-04T23:29:16.255Z,2.16
2023-03-04T23:31:44.676Z,2.00
2023-03-04T23:34:13.911Z,2.00
2023-03-04T23:36:42.532Z,2.11
2023-03-04T23:39:13.381Z,2.04
2023-03-04T23:41:41.542Z,2.15
2023-03-04T23:44:12.446Z,2.00
2023-03-04T23:46:41.176Z,2.05
2023-03-04T23:49:14.154Z,2.07
2023-03-04T23:51:44.412Z,2.01
2023-03-04T23:54:14.518Z,2.05
2023-03-04T23:56:43.272Z,2.09
2023-03-04T23:59:12.492Z,1.96
